• Join FlightAware (Why Join?)
  • Login
  • US Flag 
09:21AM EST


 

Airport Tracker/Info


-or-


 

Live Flight TrackerFlight Track Log ✈ N2180F ✈ 18-Jul-2014 ✈ KACB - 16G

Flight Track Log - Related Links

Times and Time Zones

All times are in EDT time to prevent confusion due to time zone crossing. See the N2180F flight status page for this flight to view local times or setup timezone preferences in your user account.

Time Position Orientation Groundspeed Altitude Reporting Facility
EDT Latitude Longitude Course Direction KTS MPH feet Rate Location/Type
04:05PM 44.9036 -85.2350 164° South 95 109 5,400  Level Minneapolis Center
04:06PM 44.8792 -85.2211 158° South 95 109 6,200 677 Climbing Minneapolis Center
04:07PM 44.8550 -85.2053 155° Southeast 95 109 6,800 677 Climbing Minneapolis Center
04:08PM 44.8253 -85.1856 155° Southeast 95 109 7,600 672 Climbing Minneapolis Center
04:09PM 44.7869 -85.1326 165° South  Level FlightAware Approximate
04:09PM 44.8000 -85.1667 152° Southeast 96 110 8,200  Level Minneapolis Center
04:10PM 44.7736 -85.1494 155° Southeast 100 115 8,700 435 Climbing Minneapolis Center
04:11PM 44.7456 -85.1344 159° South 103 119 9,100 145 Climbing Minneapolis Center
04:12PM 44.7125 -85.1203 163° South 116 133 9,000  Descending Minneapolis Center
04:13PM 44.6689 -85.1050 166° South 130 150 9,100 48 Climbing Minneapolis Center
04:14PM 44.6331 -85.0939 168° South 130 150 9,100 -48 Level Minneapolis Center
04:15PM 44.5969 -85.0825 167° South 131 151 9,000 -48 Descending Minneapolis Center
04:16PM 44.5614 -85.0717 168° South 131 151 9,000  Level Minneapolis Center
04:17PM 44.5239 -85.0608 168° South 132 152 9,000  Level Minneapolis Center
04:18PM 44.4881 -85.0500 168° South 132 152 9,000  Level Minneapolis Center
04:19PM 44.4456 -85.0378 168° South 132 152 9,000 48 Level Minneapolis Center
04:20PM 44.4097 -85.0261 167° South 132 152 9,100 48 Climbing Minneapolis Center
04:21PM 44.3744 -85.0128 165° South 132 152 9,100 -48 Level Minneapolis Center
04:22PM 44.3389 -85.0031 169° South 132 152 9,000  Descending Minneapolis Center
04:23PM 44.3031 -84.9936 169° South 131 151 9,100 48 Climbing Minneapolis Center
04:24PM 44.2681 -84.9850 170° South 131 151 9,100  Level Minneapolis Center
04:25PM 44.2244 -84.9731 169° South 131 151 9,100  Level Minneapolis Center
04:26PM 44.1881 -84.9644 170° South 131 151 9,100 -48 Level Minneapolis Center
04:27PM 44.1522 -84.9567 171° South 131 151 9,000 -48 Descending Minneapolis Center
04:28PM 44.1156 -84.9472 170° South 131 151 9,000  Level Minneapolis Center
04:29PM 44.0797 -84.9375 169° South 131 151 9,000  Level Minneapolis Center
04:30PM 44.0439 -84.9286 170° South 131 151 9,000  Level Minneapolis Center
04:32PM 44.0042 -84.9178 169° South 131 151 9,000  Level Minneapolis Center
04:33PM 43.9678 -84.9072 168° South 131 151 9,000  Level Minneapolis Center
04:34PM 43.9314 -84.8972 169° South 131 151 9,000  Level Minneapolis Center
04:35PM 43.8883 -84.8847 168° South 132 152 9,000  Level Minneapolis Center
04:36PM 43.8564 -84.8736 166° South 127 146 9,000  Level Cleveland Center
04:37PM 43.8183 -84.8619 168° South 129 148 9,000  Level Cleveland Center
04:38PM 43.7817 -84.8494 166° South 129 148 9,000  Level Cleveland Center
04:39PM 43.7442 -84.8378 167° South 130 150 9,000  Level Cleveland Center
04:40PM 43.7119 -84.8292 169° South 131 151 9,000 -142 Level Minneapolis Center
04:41PM 43.6669 -84.8150 167° South 132 152 8,700 -290 Descending Minneapolis Center
04:42PM 43.6289 -84.8028 167° South 136 157 8,400 -298 Descending Minneapolis Center
04:43PM 43.5894 -84.7903 167° South 138 159 8,100 -248 Descending Cleveland Center
04:44PM 43.5531 -84.7819 171° South 138 159 7,900 -48 Descending Cleveland Center
04:45PM 43.5172 -84.7733 170° South 127 146 8,000 48 Climbing Cleveland Center
04:46PM 43.4811 -84.7647 170° South 127 146 8,000  Level Cleveland Center
04:47PM 43.4447 -84.7536 168° South 127 146 8,000  Level Cleveland Center
04:48PM 43.4081 -84.7425 168° South 128 147 8,000 -48 Level Cleveland Center
04:49PM 43.3714 -84.7292 165° South 129 148 7,900 -48 Descending Cleveland Center
04:50PM 43.3353 -84.7183 168° South 129 148 7,900 48 Level Cleveland Center
04:51PM 43.2992 -84.7069 167° South 128 147 8,000 48 Climbing Cleveland Center
04:52PM 43.2636 -84.6956 167° South 128 147 8,000  Level Cleveland Center
04:53PM 43.2306 -84.6856 168° South 128 147 8,000 -48 Level Cleveland Center
04:54PM 43.1942 -84.6736 167° South 128 147 7,900  Descending Cleveland Center
04:55PM 43.1581 -84.6617 166° South 128 147 8,000 97 Climbing Cleveland Center
04:56PM 43.1222 -84.6536 171° South 128 147 8,100 -48 Climbing Cleveland Center
04:57PM 43.0844 -84.6436 169° South 130 150 7,900 -97 Descending Cleveland Center
04:58PM 43.0469 -84.6347 170° South 131 151 7,900 48 Level Cleveland Center
04:59PM 43.0106 -84.6261 170° South 130 150 8,000 48 Climbing Cleveland Center
05:00PM 42.9728 -84.6203 174° South 130 150 8,000  Level Cleveland Center
05:01PM 42.9389 -84.6119 170° South 130 150 8,000  Level Cleveland Center
05:03PM 42.9008 -84.6058 173° South 132 152 8,000 -48 Level Cleveland Center
05:04PM 42.8653 -84.5978 171° South 129 148 7,900  Descending Cleveland Center
05:05PM 42.8281 -84.5858 167° South 131 151 8,000  Climbing Cleveland Center
05:06PM 42.7908 -84.5747 168° South 131 151 7,900  Descending Cleveland Center
05:07PM 42.7550 -84.5611 164° South 131 151 8,000 97 Climbing Cleveland Center
05:08PM 42.7172 -84.5508 169° South 131 151 8,100 48 Climbing Cleveland Center
05:09PM 42.6806 -84.5403 168° South 131 151 8,100  Level Cleveland Center
05:10PM 42.6500 -84.5314 168° South 131 151 8,100 -97 Level Cleveland Center
05:11PM 42.6053 -84.5181 168° South 133 153 7,900 -48 Descending Cleveland Center
05:12PM 42.5708 -84.5092 169° South 133 153 8,000 96 Climbing Cleveland Center
05:13PM 42.5356 -84.4994 169° South 132 152 8,100  Climbing Cleveland Center
05:14PM 42.4997 -84.4897 169° South 132 152 8,000 -48 Descending Cleveland Center
05:15PM 42.4619 -84.4789 168° South 133 153 8,000  Level Cleveland Center
05:16PM 42.4253 -84.4681 168° South 134 154 8,000  Level Cleveland Center
05:17PM 42.3817 -84.4536 166° South 134 154 8,000  Level Cleveland Center
05:18PM 42.3458 -84.4444 169° South 134 154 8,000  Level Cleveland Center
05:19PM 42.3100 -84.4336 167° South 134 154 8,000  Level Cleveland Center
05:20PM 42.2731 -84.4264 172° South 133 153 8,000  Level Cleveland Center
05:21PM 42.2358 -84.4181 171° South 134 154 8,000  Level Cleveland Center
05:22PM 42.1992 -84.4111 172° South 135 155 8,000  Level Cleveland Center
05:23PM 42.1561 -84.3997 169° South 134 154 8,000 48 Level Cleveland Center
05:24PM 42.1194 -84.3894 168° South 133 153 8,100 48 Climbing Cleveland Center
05:25PM 42.0839 -84.3786 167° South 132 152 8,100  Level Cleveland Center
05:26PM 42.0542 -84.3472 142° Southeast 141 162 8,100 48 Level Cleveland Center
05:27PM 42.0306 -84.3108 131° Southeast 137 158 8,200  Climbing Cleveland Center
05:28PM 42.0006 -84.2683 134° Southeast 136 157 8,100 -48 Descending Cleveland Center
05:29PM 41.9722 -84.2369 141° Southeast 135 155 8,100  Level Cleveland Center
05:30PM 41.9428 -84.2047 141° Southeast 135 155 8,100 -48 Level Cleveland Center
05:31PM 41.9144 -84.1725 140° Southeast 135 155 8,000 -48 Descending Cleveland Center
05:33PM 41.8847 -84.1394 140° Southeast 136 157 8,000  Level Cleveland Center
05:34PM 41.8497 -84.0978 138° Southeast 137 158 8,000 48 Level Cleveland Center
05:35PM 41.8228 -84.0639 137° Southeast 137 158 8,100 48 Climbing Cleveland Center
05:36PM 41.7919 -84.0306 141° Southeast 137 158 8,100  Level Cleveland Center
05:37PM 41.7658 -83.9994 138° Southeast 136 157 8,100  Level Cleveland Center
05:38PM 41.7347 -83.9661 141° Southeast 139 160 8,100 -97 Level Cleveland Center
05:39PM 41.7058 -83.9311 138° Southeast 140 161 7,900 -288 Descending Cleveland Center
05:40PM 41.6697 -83.8883 138° Southeast 142 163 7,500 -384 Descending Cleveland Center
05:41PM 41.6397 -83.8522 138° Southeast 145 167 7,100 -435 Descending Cleveland Center
05:42PM 41.6083 -83.8169 140° Southeast 146 168 6,600 -484 Descending Cleveland Center
05:43PM 41.5772 -83.7803 139° Southeast 146 168 6,100 -484 Descending Cleveland Center
05:44PM 41.5472 -83.7447 138° Southeast 147 169 5,600 -484 Descending Cleveland Center
05:45PM 41.5117 -83.7028 139° Southeast 142 163 5,100 -387 Descending Cleveland Center
05:46PM 41.4825 -83.6669 137° Southeast 144 166 4,800 -387 Descending Cleveland Center
05:47PM 41.4514 -83.6322 140° Southeast 144 166 4,300 -484 Descending Cleveland Center
05:48PM 41.4222 -83.5969 138° Southeast 144 166 3,800 -242 Descending Cleveland Center
05:49PM 41.3950 -83.5675 141° Southeast 133 153 3,800 48 Level Cleveland Center
05:50PM 41.3708 -83.5381 138° Southeast 123 142 3,900 96 Climbing Cleveland Center
05:51PM 41.3425 -83.5011 136° Southeast 121 139 4,000 48 Climbing Cleveland Center
05:52PM 41.3172 -83.4717 139° Southeast 121 139 4,000 -97 Level Cleveland Center
05:53PM 41.2906 -83.4406 139° Southeast 122 140 3,800 -194 Descending Cleveland Center
05:54PM 41.2639 -83.4103 140° Southeast 123 142 3,600 -242 Descending Cleveland Center
05:55PM 41.2361 -83.3781 139° Southeast 128 147 3,300 -290 Descending Cleveland Center
05:56PM 41.2078 -83.3433 137° Southeast 128 147 3,000 -290 Descending Cleveland Center